Terminal Aerodrome Forecast
Issued by NWS

Home | Current Version | Previous Version | Text Only | Print | Product List | Glossary On
Versions: 1 2 3 4 5 6 7 8 9 10 11 12 13 14 15 16 17 18 19 20 21 22 23 24
787
FTUS44 KLZK 192340
TAFHRO
TAF
KHRO 192340Z 2000/2024 16005KT P6SM SCT015
      TEMPO 2000/2004 5SM BR BKN015
     FM200400 18004KT 4SM BR OVC007
     FM200900 VRB04KT 1SM BR OVC004
      TEMPO 2010/2014 1/4SM FG VV002
     FM201700 17010KT P6SM BKN015
     FM202000 18010KT P6SM SCT025=

USA.gov is the U.S. government's official web portal to all federal, state and local government web resources and services.